Time;durP1;ratioP1;P1;durP2;ratioP2;P2;SDS_P1;SDS_P2;PMS_P1;PMS_P2;Temp;Humidity;BMP_temperature;BMP_pressure;BME280_temperature;BME280_humidity;BME280_pressure;Samples;Min_cycle;Max_cycle;Signal;HPM_P1;HPM_P2
2023/01/21 05:44:26;;;;;;;1.40;0.83;;;;;;;;;;7391837;19;20192;-59
2023/01/21 05:46:51;;;;;;;2.30;2.20;;;;;;;;;;7389705;19;20324;-59
2023/01/21 05:49:17;;;;;;;2.17;1.97;;;;;;;;;;7384445;19;20128;-59
2023/01/21 05:51:42;;;;;;;1.53;1.43;;;;;;;;;;7386629;19;20113;-59
2023/01/21 05:54:07;;;;;;;1.87;1.77;;;;;;;;;;7377067;19;20137;-60
2023/01/21 05:56:33;;;;;;;2.47;1.67;;;;;;;;;;7386472;19;20119;-59
2023/01/21 05:58:58;;;;;;;1.50;1.40;;;;;;;;;;7380837;19;20114;-59
2023/01/21 06:01:23;;;;;;;2.07;1.37;;;;;;;;;;7381249;19;20121;-60
2023/01/21 06:03:48;;;;;;;2.40;1.17;;;;;;;;;;7382544;19;20145;-59
2023/01/21 06:06:14;;;;;;;2.53;2.17;;;;;;;;;;7381401;19;20188;-60
2023/01/21 06:08:39;;;;;;;2.73;2.30;;;;;;;;;;7379771;19;20121;-59
2023/01/21 06:11:04;;;;;;;1.10;1.10;;;;;;;;;;7382543;19;20480;-60
2023/01/21 06:13:30;;;;;;;1.67;1.57;;;;;;;;;;7385152;19;20149;-61
2023/01/21 06:15:55;;;;;;;1.10;1.03;;;;;;;;;;7375283;19;20144;-60
2023/01/21 06:18:21;;;;;;;1.03;0.93;;;;;;;;;;7379608;19;20113;-59
2023/01/21 06:20:47;;;;;;;2.43;2.00;;;;;;;;;;7382138;19;20149;-60
2023/01/21 06:23:12;;;;;;;3.47;2.03;;;;;;;;;;7381805;19;20117;-60
2023/01/21 06:25:37;;;;;;;2.20;2.10;;;;;;;;;;7384782;19;20459;-62
2023/01/21 06:28:03;;;;;;;2.30;2.07;;;;;;;;;;7375622;19;20478;-60
2023/01/21 06:30:28;;;;;;;1.83;1.73;;;;;;;;;;7376066;19;20460;-59
2023/01/21 06:32:53;;;;;;;2.77;2.57;;;;;;;;;;7380721;19;20125;-60
2023/01/21 06:35:19;;;;;;;1.63;1.53;;;;;;;;;;7376193;19;20260;-61
2023/01/21 06:37:44;;;;;;;2.03;1.93;;;;;;;;;;7381704;19;20133;-59
2023/01/21 06:40:11;;;;;;;2.97;2.33;;;;;;;;;;7379672;19;20469;-60
2023/01/21 06:42:36;;;;;;;2.07;1.77;;;;;;;;;;7380771;19;20141;-59
2023/01/21 06:45:02;;;;;;;1.23;1.23;;;;;;;;;;7379164;19;20155;-62
2023/01/21 06:47:27;;;;;;;3.20;2.50;;;;;;;;;;7378678;19;20151;-59
2023/01/21 06:49:52;;;;;;;2.47;2.27;;;;;;;;;;7381097;19;20117;-60
2023/01/21 06:52:18;;;;;;;2.50;2.30;;;;;;;;;;7387818;19;20121;-60
2023/01/21 06:54:43;;;;;;;2.53;2.33;;;;;;;;;;7383230;19;20156;-59
2023/01/21 06:57:10;;;;;;;2.73;2.53;;;;;;;;;;7390414;19;20447;-59
2023/01/21 06:59:35;;;;;;;2.20;1.97;;;;;;;;;;7384264;19;20200;-60
2023/01/21 07:02:00;;;;;;;5.67;2.20;;;;;;;;;;7370808;19;20129;-60
2023/01/21 07:04:26;;;;;;;1.33;1.30;;;;;;;;;;7374802;19;20147;-60
2023/01/21 07:06:52;;;;;;;3.80;1.90;;;;;;;;;;7372978;19;20129;-59
2023/01/21 07:09:17;;;;;;;1.80;1.70;;;;;;;;;;7379423;19;20153;-59
2023/01/21 07:11:43;;;;;;;2.23;2.07;;;;;;;;;;7382671;19;20201;-62
2023/01/21 07:14:08;;;;;;;1.43;1.33;;;;;;;;;;7385902;19;20149;-60
2023/01/21 07:16:34;;;;;;;2.20;2.00;;;;;;;;;;7385274;19;20483;-60
2023/01/21 07:18:59;;;;;;;2.30;2.13;;;;;;;;;;7388441;19;20137;-60
2023/01/21 07:21:24;;;;;;;3.70;2.13;;;;;;;;;;7389505;19;20132;-61
2023/01/21 07:23:53;;;;;;;2.67;2.47;;;;;;;;;;7381358;19;20148;-59
2023/01/21 07:26:18;;;;;;;2.30;1.67;;;;;;;;;;7387415;19;20584;-60
2023/01/21 07:28:44;;;;;;;2.77;2.57;;;;;;;;;;7387305;19;20137;-59
2023/01/21 07:31:09;;;;;;;4.33;3.20;;;;;;;;;;7388455;19;20125;-60
2023/01/21 07:33:34;;;;;;;4.10;1.93;;;;;;;;;;7388553;19;20152;-60
2023/01/21 07:36:00;;;;;;;2.50;2.30;;;;;;;;;;7386035;19;20141;-60
2023/01/21 07:38:25;;;;;;;2.37;2.13;;;;;;;;;;7388665;19;20132;-60
2023/01/21 07:40:50;;;;;;;2.57;2.07;;;;;;;;;;7390170;19;20125;-60
2023/01/21 07:43:16;;;;;;;1.07;1.07;;;;;;;;;;7394505;19;20160;-60
2023/01/21 07:45:42;;;;;;;2.80;2.30;;;;;;;;;;7395901;19;20137;-61
2023/01/21 07:48:07;;;;;;;1.80;1.70;;;;;;;;;;7395264;19;20493;-59
2023/01/21 07:50:33;;;;;;;0.93;0.93;;;;;;;;;;7394908;19;20133;-59
2023/01/21 07:52:59;;;;;;;2.07;1.97;;;;;;;;;;7395889;19;20125;-60
2023/01/21 07:55:25;;;;;;;4.17;2.87;;;;;;;;;;7391869;19;20523;-60
2023/01/21 07:57:50;;;;;;;3.33;2.60;;;;;;;;;;7395598;19;20117;-61
2023/01/21 08:00:16;;;;;;;5.43;2.53;;;;;;;;;;7397038;19;20137;-60
2023/01/21 08:02:41;;;;;;;3.73;3.43;;;;;;;;;;7388656;19;20129;-60
2023/01/21 08:05:07;;;;;;;2.17;1.97;;;;;;;;;;7391728;19;20598;-60
2023/01/21 08:07:32;;;;;;;3.40;2.43;;;;;;;;;;7390538;19;20163;-60
2023/01/21 08:09:58;;;;;;;1.90;1.80;;;;;;;;;;7392959;19;20132;-60
2023/01/21 08:12:23;;;;;;;3.03;2.80;;;;;;;;;;7390194;19;20516;-60
2023/01/21 08:14:48;;;;;;;3.07;2.77;;;;;;;;;;7386189;19;20165;-61
2023/01/21 08:17:14;;;;;;;2.63;2.03;;;;;;;;;;7384272;19;20133;-61
2023/01/21 08:19:39;;;;;;;2.57;2.37;;;;;;;;;;7386817;19;20133;-60
2023/01/21 08:22:04;;;;;;;5.17;1.87;;;;;;;;;;7382058;19;20560;-61
2023/01/21 08:24:29;;;;;;;3.10;2.70;;;;;;;;;;7381605;19;20582;-62
2023/01/21 08:26:59;;;;;;;3.00;2.67;;;;;;;;;;7370407;19;20132;-61
2023/01/21 08:29:24;;;;;;;2.80;2.60;;;;;;;;;;7365064;19;20117;-60
2023/01/21 08:31:51;;;;;;;1.80;1.70;;;;;;;;;;7374027;19;20151;-61
2023/01/21 08:34:16;;;;;;;5.60;2.97;;;;;;;;;;7375668;19;20172;-59
2023/01/21 08:36:41;;;;;;;3.60;3.30;;;;;;;;;;7371969;19;20162;-61
2023/01/21 08:39:07;;;;;;;3.17;2.53;;;;;;;;;;7378577;19;20634;-60
2023/01/21 08:41:33;;;;;;;2.73;2.57;;;;;;;;;;7386373;19;20117;-60
2023/01/21 08:43:58;;;;;;;2.83;2.53;;;;;;;;;;7384628;19;20508;-60
2023/01/21 08:46:23;;;;;;;2.30;2.17;;;;;;;;;;7393300;19;20149;-59
2023/01/21 08:48:49;;;;;;;3.23;2.27;;;;;;;;;;7381877;19;20639;-59
2023/01/21 08:51:15;;;;;;;5.53;2.93;;;;;;;;;;7380055;19;20133;-60
2023/01/21 08:53:40;;;;;;;3.47;2.87;;;;;;;;;;7384696;19;20147;-60
2023/01/21 08:56:05;;;;;;;2.33;2.13;;;;;;;;;;7384588;19;20125;-59
2023/01/21 08:58:31;;;;;;;3.30;2.97;;;;;;;;;;7383552;19;20237;-59
2023/01/21 09:00:57;;;;;;;2.87;2.13;;;;;;;;;;7379488;19;20137;-61
2023/01/21 09:03:22;;;;;;;3.60;2.57;;;;;;;;;;7377070;19;20121;-62
2023/01/21 09:05:50;;;;;;;5.53;3.17;;;;;;;;;;7381660;19;20521;-60
2023/01/21 09:08:16;;;;;;;2.47;2.27;;;;;;;;;;7384249;19;20159;-59
2023/01/21 09:11:00;;;;;;;2.10;2.00;;;;;;;;;;7383360;19;20129;-60
2023/01/21 09:13:27;;;;;;;2.40;2.17;;;;;;;;;;7389391;19;20595;-59
2023/01/21 09:15:52;;;;;;;1.67;1.57;;;;;;;;;;7372704;19;20128;-59
2023/01/21 09:18:18;;;;;;;3.60;2.93;;;;;;;;;;7381898;19;20117;-60
2023/01/21 09:20:43;;;;;;;3.13;2.83;;;;;;;;;;7383774;19;20137;-60
2023/01/21 09:23:22;;;;;;;3.27;3.00;;;;;;;;;;7385850;19;20120;-59
2023/01/21 09:25:53;;;;;;;2.97;1.83;;;;;;;;;;7356682;19;20133;-59
2023/01/21 09:28:19;;;;;;;3.63;2.67;;;;;;;;;;7378628;19;20113;-60
2023/01/21 09:30:45;;;;;;;3.37;2.07;;;;;;;;;;7360591;19;20226;-60
2023/01/21 09:33:11;;;;;;;2.47;2.27;;;;;;;;;;7377135;19;20598;-59
2023/01/21 09:35:37;;;;;;;4.97;3.17;;;;;;;;;;7350387;19;20125;-59
2023/01/21 09:38:02;;;;;;;2.50;2.37;;;;;;;;;;7368838;19;20132;-59
2023/01/21 09:40:28;;;;;;;2.60;2.40;;;;;;;;;;7377844;19;20141;-61
2023/01/21 09:42:53;;;;;;;1.63;1.53;;;;;;;;;;7380048;19;20662;-59
2023/01/21 09:45:19;;;;;;;1.87;1.77;;;;;;;;;;7358853;19;20526;-59
2023/01/21 09:47:46;;;;;;;3.37;2.87;;;;;;;;;;7364305;19;20138;-60
2023/01/21 09:50:13;;;;;;;3.47;1.50;;;;;;;;;;7369437;19;20145;-59
2023/01/21 09:52:40;;;;;;;2.37;2.27;;;;;;;;;;7391795;19;20137;-61
2023/01/21 09:55:16;;;;;;;2.30;1.97;;;;;;;;;;7371155;19;20704;-59
2023/01/21 09:58:12;;;;;;;1.37;1.37;;;;;;;;;;7378088;19;20124;-61
2023/01/21 10:00:48;;;;;;;3.77;2.60;;;;;;;;;;7378983;19;20137;-60
2023/01/21 10:03:32;;;;;;;4.40;2.70;;;;;;;;;;7373573;19;20136;-60
2023/01/21 10:06:24;;;;;;;2.17;2.07;;;;;;;;;;7376430;19;20132;-60
2023/01/21 10:09:18;;;;;;;8.27;3.00;;;;;;;;;;7385765;19;20507;-61
2023/01/21 10:12:08;;;;;;;2.27;1.80;;;;;;;;;;7388087;19;20577;-60
2023/01/21 10:14:58;;;;;;;2.00;1.73;;;;;;;;;;7380015;19;20248;-59
2023/01/21 10:17:38;;;;;;;2.63;2.13;;;;;;;;;;7382319;19;20128;-61
2023/01/21 10:20:27;;;;;;;2.33;2.23;;;;;;;;;;7377998;19;20141;-60
2023/01/21 10:23:06;;;;;;;2.80;2.43;;;;;;;;;;7377238;19;20142;-59
2023/01/21 10:25:32;;;;;;;5.03;2.57;;;;;;;;;;7378388;19;20155;-61
2023/01/21 10:28:11;;;;;;;5.57;2.33;;;;;;;;;;7377313;19;20606;-59
2023/01/21 10:30:40;;;;;;;3.00;1.80;;;;;;;;;;7380561;19;20136;-59
2023/01/21 10:33:14;;;;;;;1.80;1.70;;;;;;;;;;7369181;19;20137;-62
2023/01/21 10:35:56;;;;;;;1.67;1.57;;;;;;;;;;7365258;19;20607;-59
2023/01/21 10:38:27;;;;;;;1.47;1.37;;;;;;;;;;7380917;19;20470;-59
2023/01/21 10:41:30;;;;;;;1.77;1.67;;;;;;;;;;7380968;19;20129;-60
2023/01/21 10:44:02;;;;;;;8.87;2.40;;;;;;;;;;7375962;19;20152;-60
2023/01/21 10:46:56;;;;;;;5.70;1.77;;;;;;;;;;7369303;19;20117;-61
2023/01/21 10:49:28;;;;;;;2.57;2.03;;;;;;;;;;7388711;19;20505;-60
2023/01/21 10:52:01;;;;;;;3.73;3.50;;;;;;;;;;7374908;19;20523;-59
2023/01/21 10:54:35;;;;;;;2.37;1.60;;;;;;;;;;7367823;19;23609;-61
2023/01/21 10:57:39;;;;;;;2.43;2.23;;;;;;;;;;7380610;19;20124;-62
2023/01/21 11:00:16;;;;;;;2.17;2.07;;;;;;;;;;7376414;19;20132;-60
2023/01/21 11:02:42;;;;;;;2.03;1.63;;;;;;;;;;7383164;19;20151;-60
2023/01/21 11:05:11;;;;;;;1.67;1.57;;;;;;;;;;7368067;19;20611;-61
2023/01/21 11:07:38;;;;;;;2.13;2.00;;;;;;;;;;7359829;19;20120;-61
2023/01/21 11:10:05;;;;;;;2.57;1.27;;;;;;;;;;7374507;19;20129;-60
2023/01/21 11:12:31;;;;;;;1.13;1.13;;;;;;;;;;7352998;19;20601;-61
2023/01/21 11:14:59;;;;;;;1.40;1.37;;;;;;;;;;7360084;19;20145;-59
2023/01/21 11:17:35;;;;;;;0.90;0.90;;;;;;;;;;7360100;19;20152;-61
2023/01/21 11:20:03;;;;;;;2.27;1.93;;;;;;;;;;7371415;19;20563;-63
2023/01/21 11:22:31;;;;;;;2.00;1.73;;;;;;;;;;7379708;19;20449;-63
2023/01/21 11:24:56;;;;;;;0.70;0.70;;;;;;;;;;7379721;19;20181;-61
2023/01/21 11:27:34;;;;;;;0.63;0.63;;;;;;;;;;7386144;19;20516;-61
2023/01/21 11:30:00;;;;;;;1.13;1.10;;;;;;;;;;7384642;19;20200;-61
2023/01/21 11:32:27;;;;;;;1.33;1.23;;;;;;;;;;7386060;19;20132;-61
2023/01/21 11:35:08;;;;;;;3.70;1.03;;;;;;;;;;7387634;19;20159;-61
2023/01/21 11:37:35;;;;;;;0.80;0.80;;;;;;;;;;7392936;19;21209;-62
2023/01/21 11:40:05;;;;;;;0.80;0.80;;;;;;;;;;7393703;19;20140;-62
2023/01/21 11:42:30;;;;;;;2.00;1.30;;;;;;;;;;7380511;19;20489;-59
2023/01/21 11:45:00;;;;;;;0.80;0.80;;;;;;;;;;7371147;19;20486;-59
2023/01/21 11:47:35;;;;;;;1.93;1.83;;;;;;;;;;7374030;19;20162;-59
2023/01/21 11:50:08;;;;;;;0.30;0.30;;;;;;;;;;7381937;19;20209;-61
2023/01/21 11:52:33;;;;;;;0.20;0.20;;;;;;;;;;7380261;19;20463;-60
2023/01/21 11:55:01;;;;;;;0.30;0.30;;;;;;;;;;7370282;19;20160;-61
2023/01/21 11:57:29;;;;;;;0.40;0.40;;;;;;;;;;7372469;19;20133;-60
2023/01/21 11:59:58;;;;;;;1.17;0.73;;;;;;;;;;7384280;19;20125;-60
2023/01/21 12:02:33;;;;;;;0.20;0.20;;;;;;;;;;7388000;19;20498;-60
2023/01/21 12:05:03;;;;;;;0.30;0.30;;;;;;;;;;7372335;19;20509;-59
2023/01/21 12:07:31;;;;;;;0.30;0.30;;;;;;;;;;7384057;19;20188;-60
2023/01/21 12:10:29;;;;;;;0.30;0.30;;;;;;;;;;7388916;19;20602;-59
2023/01/21 12:13:19;;;;;;;0.30;0.30;;;;;;;;;;7380798;19;20196;-60
2023/01/21 12:16:12;;;;;;;0.20;0.20;;;;;;;;;;7370115;19;20143;-60
2023/01/21 12:19:02;;;;;;;0.50;0.50;;;;;;;;;;7378486;19;20124;-59
2023/01/21 12:21:45;;;;;;;0.30;0.30;;;;;;;;;;7391903;19;22105;-60
2023/01/21 12:24:33;;;;;;;0.30;0.30;;;;;;;;;;7390980;19;20642;-60
2023/01/21 12:27:11;;;;;;;0.50;0.50;;;;;;;;;;7387437;19;20128;-59
2023/01/21 12:30:14;;;;;;;0.30;0.30;;;;;;;;;;7387699;19;20529;-60
2023/01/21 12:32:45;;;;;;;0.30;0.30;;;;;;;;;;7374930;19;20765;-59
2023/01/21 12:35:30;;;;;;;0.30;0.30;;;;;;;;;;7383836;19;20155;-59
2023/01/21 12:38:16;;;;;;;0.40;0.40;;;;;;;;;;7377536;19;20160;-60
2023/01/21 12:41:08;;;;;;;0.30;0.30;;;;;;;;;;7378889;19;20128;-63
2023/01/21 12:43:38;;;;;;;1.50;1.40;;;;;;;;;;7367269;19;20193;-59
2023/01/21 12:46:12;;;;;;;1.10;1.10;;;;;;;;;;7374588;19;20140;-60
2023/01/21 12:49:02;;;;;;;1.53;1.30;;;;;;;;;;7381734;19;20463;-60
2023/01/21 12:51:38;;;;;;;2.20;1.17;;;;;;;;;;7382642;19;20121;-60
2023/01/21 12:54:22;;;;;;;1.03;1.03;;;;;;;;;;7380869;19;20487;-60
2023/01/21 12:56:54;;;;;;;1.70;1.60;;;;;;;;;;7376408;19;20137;-60
2023/01/21 12:59:24;;;;;;;1.23;1.23;;;;;;;;;;7390262;19;20461;-60
2023/01/21 13:02:05;;;;;;;1.13;1.10;;;;;;;;;;7383055;19;20135;-61
2023/01/21 13:05:09;;;;;;;2.23;2.03;;;;;;;;;;7386997;19;20500;-60
2023/01/21 13:08:12;;;;;;;0.73;0.73;;;;;;;;;;7385377;19;20137;-62
2023/01/21 13:10:41;;;;;;;2.10;1.63;;;;;;;;;;7383370;19;20133;-61
2023/01/21 13:13:14;;;;;;;1.23;1.13;;;;;;;;;;7376878;19;20136;-61
2023/01/21 13:15:42;;;;;;;2.57;1.63;;;;;;;;;;7377489;19;20121;-60
2023/01/21 13:18:15;;;;;;;1.13;1.03;;;;;;;;;;7379856;19;20153;-61
2023/01/21 13:20:46;;;;;;;1.40;1.27;;;;;;;;;;7376005;19;21166;-60
2023/01/21 13:23:33;;;;;;;2.77;1.93;;;;;;;;;;7384985;19;20131;-60
2023/01/21 13:26:03;;;;;;;1.23;1.23;;;;;;;;;;7387588;19;20129;-60
2023/01/21 13:28:38;;;;;;;1.40;1.30;;;;;;;;;;7386993;19;20117;-59
2023/01/21 13:31:21;;;;;;;4.13;2.30;;;;;;;;;;7380655;19;20134;-60
2023/01/21 13:34:11;;;;;;;1.90;1.70;;;;;;;;;;7382185;19;20176;-61
2023/01/21 13:36:39;;;;;;;1.40;1.30;;;;;;;;;;7382378;19;20125;-61
2023/01/21 13:39:39;;;;;;;1.17;1.17;;;;;;;;;;7376631;19;20121;-61
2023/01/21 13:42:13;;;;;;;1.10;0.83;;;;;;;;;;7390186;19;20122;-59
2023/01/21 13:45:10;;;;;;;0.97;0.97;;;;;;;;;;7390878;19;20143;-59
2023/01/21 13:47:48;;;;;;;0.77;0.77;;;;;;;;;;7378410;19;20153;-60
2023/01/21 13:50:16;;;;;;;2.47;1.90;;;;;;;;;;7379792;19;20125;-60
2023/01/21 13:52:41;;;;;;;0.90;0.90;;;;;;;;;;7383360;19;20129;-61
2023/01/21 13:55:46;;;;;;;1.20;1.20;;;;;;;;;;7380033;19;20486;-61
2023/01/21 13:58:14;;;;;;;0.60;0.60;;;;;;;;;;7368376;19;20129;-60
2023/01/21 14:00:44;;;;;;;1.30;1.30;;;;;;;;;;7389708;19;20615;-60
2023/01/21 14:03:27;;;;;;;1.13;1.13;;;;;;;;;;7385610;19;20144;-61
2023/01/21 14:06:17;;;;;;;1.27;1.17;;;;;;;;;;7357345;19;20149;-60
2023/01/21 14:08:50;;;;;;;1.40;1.30;;;;;;;;;;7379530;19;20156;-59
2023/01/21 14:11:33;;;;;;;1.17;1.17;;;;;;;;;;7381925;19;20158;-61
2023/01/21 14:14:23;;;;;;;4.43;2.00;;;;;;;;;;7385379;19;20159;-60
2023/01/21 14:17:08;;;;;;;0.73;0.73;;;;;;;;;;7385004;19;20134;-60
2023/01/21 14:19:49;;;;;;;0.80;0.80;;;;;;;;;;7385648;19;20137;-60
2023/01/21 14:22:38;;;;;;;1.33;1.27;;;;;;;;;;7380491;19;20125;-60
2023/01/21 14:25:19;;;;;;;1.40;1.30;;;;;;;;;;7379092;19;20144;-59
2023/01/21 14:28:01;;;;;;;1.27;1.23;;;;;;;;;;7356473;19;20144;-60
2023/01/21 14:30:50;;;;;;;0.67;0.67;;;;;;;;;;7378484;19;20140;-60
2023/01/21 14:33:19;;;;;;;1.93;1.73;;;;;;;;;;7369325;19;20158;-60
2023/01/21 14:36:05;;;;;;;9.43;2.00;;;;;;;;;;7375856;19;20133;-59
2023/01/21 14:39:03;;;;;;;1.63;1.53;;;;;;;;;;7371518;19;20716;-60
2023/01/21 14:42:07;;;;;;;1.43;1.40;;;;;;;;;;7370460;19;20144;-60
2023/01/21 14:45:00;;;;;;;1.13;1.13;;;;;;;;;;7372283;19;20177;-61
2023/01/21 14:47:28;;;;;;;1.17;1.07;;;;;;;;;;7380382;19;20128;-60
2023/01/21 14:49:55;;;;;;;5.40;1.67;;;;;;;;;;7385900;19;20148;-59
2023/01/21 14:52:28;;;;;;;5.73;1.83;;;;;;;;;;7386299;19;20468;-59
2023/01/21 14:54:54;;;;;;;3.50;1.67;;;;;;;;;;7387213;19;20144;-60
2023/01/21 14:57:34;;;;;;;0.97;0.70;;;;;;;;;;7387789;19;20170;-61
2023/01/21 15:00:01;;;;;;;1.70;1.60;;;;;;;;;;7371837;19;20120;-60
2023/01/21 15:02:30;;;;;;;0.60;0.60;;;;;;;;;;7382250;19;20141;-59
2023/01/21 15:04:56;;;;;;;1.90;1.33;;;;;;;;;;7376103;19;20502;-60
2023/01/21 15:07:24;;;;;;;1.53;0.77;;;;;;;;;;7383249;19;20139;-59
2023/01/21 15:09:52;;;;;;;1.10;1.00;;;;;;;;;;7388160;19;20127;-60
2023/01/21 15:12:38;;;;;;;1.27;1.20;;;;;;;;;;7388021;19;20135;-59
2023/01/21 15:15:26;;;;;;;0.53;0.53;;;;;;;;;;7385701;19;20152;-59
2023/01/21 15:17:54;;;;;;;1.30;1.20;;;;;;;;;;7356552;19;20125;-59
2023/01/21 15:20:41;;;;;;;1.57;1.50;;;;;;;;;;7332057;19;20493;-59
2023/01/21 15:23:28;;;;;;;0.60;0.60;;;;;;;;;;7320421;19;20128;-59
2023/01/21 15:26:06;;;;;;;0.70;0.70;;;;;;;;;;7340154;19;20148;-59
2023/01/21 15:28:39;;;;;;;1.87;1.77;;;;;;;;;;7350671;19;20152;-59
2023/01/21 15:31:07;;;;;;;0.70;0.63;;;;;;;;;;7334437;19;20137;-60
2023/01/21 15:33:39;;;;;;;0.90;0.90;;;;;;;;;;7327651;19;20178;-59
2023/01/21 15:36:13;;;;;;;0.93;0.93;;;;;;;;;;7324950;19;20154;-61
2023/01/21 15:38:40;;;;;;;0.93;0.93;;;;;;;;;;7335496;19;20817;-60
2023/01/21 15:41:17;;;;;;;1.13;1.03;;;;;;;;;;7350987;19;20607;-59
2023/01/21 15:43:50;;;;;;;0.80;0.80;;;;;;;;;;7359202;19;20144;-59
2023/01/21 15:46:33;;;;;;;1.03;1.03;;;;;;;;;;7343325;19;20662;-59
2023/01/21 15:49:26;;;;;;;1.37;1.27;;;;;;;;;;7351507;19;20240;-59
2023/01/21 15:52:05;;;;;;;1.33;1.23;;;;;;;;;;7355646;19;20125;-63
2023/01/21 15:55:22;;;;;;;1.13;1.03;;;;;;;;;;7349269;19;20253;-61
2023/01/21 15:57:59;;;;;;;1.00;1.00;;;;;;;;;;7356446;19;20133;-60
2023/01/21 16:00:31;;;;;;;1.07;1.07;;;;;;;;;;7365257;19;20125;-60
2023/01/21 16:03:18;;;;;;;1.53;1.43;;;;;;;;;;7374576;19;20135;-59
2023/01/21 16:06:03;;;;;;;0.80;0.80;;;;;;;;;;7365273;19;20174;-59
2023/01/21 16:08:50;;;;;;;0.87;0.87;;;;;;;;;;7378042;19;20154;-59
2023/01/21 16:11:22;;;;;;;1.50;1.40;;;;;;;;;;7371946;19;21008;-59
2023/01/21 16:13:56;;;;;;;1.57;1.47;;;;;;;;;;7363271;19;20220;-60
2023/01/21 16:16:49;;;;;;;1.87;1.33;;;;;;;;;;7359199;19;20125;-61
2023/01/21 16:19:18;;;;;;;1.83;1.73;;;;;;;;;;7364491;19;20631;-61
2023/01/21 16:21:45;;;;;;;1.83;1.40;;;;;;;;;;7373515;19;20124;-61
2023/01/21 16:24:15;;;;;;;2.23;1.37;;;;;;;;;;7355874;19;20169;-59
2023/01/21 16:26:41;;;;;;;0.77;0.77;;;;;;;;;;7358647;19;20220;-60
2023/01/21 16:29:13;;;;;;;1.43;1.33;;;;;;;;;;7360387;19;20208;-61
2023/01/21 16:31:50;;;;;;;1.47;1.37;;;;;;;;;;7368121;19;20120;-60
2023/01/21 16:34:38;;;;;;;0.90;0.90;;;;;;;;;;7343367;19;20153;-59
2023/01/21 16:37:10;;;;;;;0.83;0.83;;;;;;;;;;7355040;19;20136;-60
2023/01/21 16:39:35;;;;;;;1.27;1.27;;;;;;;;;;7342944;19;21697;-61
2023/01/21 16:42:05;;;;;;;1.70;1.57;;;;;;;;;;7347530;19;20121;-59
2023/01/21 16:44:32;;;;;;;1.53;1.43;;;;;;;;;;7343195;19;20141;-59
2023/01/21 16:46:57;;;;;;;1.23;1.13;;;;;;;;;;7339870;19;20635;-61
2023/01/21 16:49:22;;;;;;;1.47;1.37;;;;;;;;;;7345326;19;20136;-61
2023/01/21 16:51:58;;;;;;;1.20;1.10;;;;;;;;;;7334318;19;20192;-60
2023/01/21 16:54:29;;;;;;;2.03;1.93;;;;;;;;;;7340309;19;20524;-60
2023/01/21 16:57:00;;;;;;;2.43;2.23;;;;;;;;;;7347630;19;20136;-59
2023/01/21 16:59:36;;;;;;;1.20;1.10;;;;;;;;;;7364826;19;20176;-61
2023/01/21 17:02:02;;;;;;;1.30;1.23;;;;;;;;;;7371845;19;20139;-60
2023/01/21 17:04:28;;;;;;;0.67;0.67;;;;;;;;;;7361648;19;20627;-60
2023/01/21 17:06:54;;;;;;;1.73;1.67;;;;;;;;;;7342775;19;20125;-59
2023/01/21 17:09:24;;;;;;;2.13;1.37;;;;;;;;;;7369573;19;20120;-59
2023/01/21 17:11:49;;;;;;;1.33;1.23;;;;;;;;;;7364785;19;20147;-59
2023/01/21 17:14:21;;;;;;;3.13;1.67;;;;;;;;;;7364200;19;20221;-60
2023/01/21 17:16:46;;;;;;;2.17;2.00;;;;;;;;;;7358525;19;20128;-61
2023/01/21 17:19:32;;;;;;;1.50;1.40;;;;;;;;;;7361048;19;20117;-60
2023/01/21 17:22:00;;;;;;;7.93;1.90;;;;;;;;;;7363533;19;20196;-60
2023/01/21 17:24:31;;;;;;;1.23;1.23;;;;;;;;;;7374746;19;20157;-59
2023/01/21 17:27:02;;;;;;;1.30;0.87;;;;;;;;;;7367390;19;20129;-61
2023/01/21 17:29:30;;;;;;;1.30;1.20;;;;;;;;;;7370073;19;20507;-59
2023/01/21 17:32:03;;;;;;;1.00;1.00;;;;;;;;;;7375680;19;20133;-59
2023/01/21 17:34:33;;;;;;;2.20;1.53;;;;;;;;;;7384165;19;20172;-59
2023/01/21 17:36:59;;;;;;;2.70;1.20;;;;;;;;;;7370033;19;20134;-61
2023/01/21 17:39:43;;;;;;;5.30;1.27;;;;;;;;;;7386467;19;20705;-61
2023/01/21 17:44:44;;;;;;;2.13;1.47;;;;;;;;;;7377962;19;20195;-60
2023/01/21 17:47:21;;;;;;;2.10;1.43;;;;;;;;;;7379428;19;20480;-59
2023/01/21 17:49:47;;;;;;;1.50;1.40;;;;;;;;;;7379092;19;20128;-60
2023/01/21 17:53:23;;;;;;;1.57;1.47;;;;;;;;;;7375038;19;20649;-59
2023/01/21 17:56:04;;;;;;;1.47;1.37;;;;;;;;;;7365198;19;20140;-59
2023/01/21 17:58:47;;;;;;;1.53;1.43;;;;;;;;;;7364066;19;20246;-59
2023/01/21 18:01:12;;;;;;;2.13;2.00;;;;;;;;;;7371352;19;20124;-62
2023/01/21 18:03:38;;;;;;;1.60;1.50;;;;;;;;;;7376144;19;20156;-60
2023/01/21 18:06:04;;;;;;;0.97;0.97;;;;;;;;;;7377203;19;20192;-59
2023/01/21 18:08:30;;;;;;;1.03;1.03;;;;;;;;;;7371328;19;20184;-60
2023/01/21 18:10:55;;;;;;;4.10;2.17;;;;;;;;;;7374895;19;20174;-59
2023/01/21 18:13:21;;;;;;;0.67;0.67;;;;;;;;;;7374715;19;20127;-60
2023/01/21 18:15:50;;;;;;;0.80;0.80;;;;;;;;;;7383225;19;20167;-61
2023/01/21 18:18:34;;;;;;;2.60;1.53;;;;;;;;;;7377438;19;20523;-59
2023/01/21 18:21:00;;;;;;;3.63;1.37;;;;;;;;;;7369280;19;20152;-59
2023/01/21 18:23:26;;;;;;;1.47;1.37;;;;;;;;;;7377577;19;20141;-59
2023/01/21 18:25:52;;;;;;;1.33;1.23;;;;;;;;;;7375475;19;20140;-59
2023/01/21 18:28:26;;;;;;;1.70;1.53;;;;;;;;;;7377906;19;20603;-60
2023/01/21 18:30:54;;;;;;;2.60;1.77;;;;;;;;;;7368420;19;20129;-60
2023/01/21 18:33:20;;;;;;;1.07;1.03;;;;;;;;;;7365073;19;20127;-59
2023/01/21 18:35:46;;;;;;;1.57;1.47;;;;;;;;;;7363268;19;20177;-60
2023/01/21 18:38:21;;;;;;;1.73;1.23;;;;;;;;;;7364992;19;20533;-60
2023/01/21 18:40:46;;;;;;;1.87;1.73;;;;;;;;;;7374506;19;20629;-60
2023/01/21 18:43:12;;;;;;;0.97;0.97;;;;;;;;;;7363981;19;20137;-59
2023/01/21 18:45:38;;;;;;;1.63;1.53;;;;;;;;;;7369108;19;20131;-61
2023/01/21 18:48:09;;;;;;;2.30;1.93;;;;;;;;;;7364119;19;20121;-59
2023/01/21 18:50:34;;;;;;;1.30;1.20;;;;;;;;;;7364501;19;20382;-60
2023/01/21 18:52:59;;;;;;;0.90;0.90;;;;;;;;;;7374457;19;20133;-59
2023/01/21 18:55:26;;;;;;;1.37;1.27;;;;;;;;;;7380555;19;20610;-61
2023/01/21 18:57:54;;;;;;;0.87;0.87;;;;;;;;;;7388278;19;20201;-61
2023/01/21 19:00:28;;;;;;;2.63;1.77;;;;;;;;;;7375762;19;20148;-59
2023/01/21 19:02:55;;;;;;;1.70;1.60;;;;;;;;;;7381215;19;20128;-59
2023/01/21 19:05:29;;;;;;;1.47;1.37;;;;;;;;;;7374461;19;20515;-58
2023/01/21 19:07:55;;;;;;;1.60;1.50;;;;;;;;;;7376004;19;20184;-61
2023/01/21 19:10:20;;;;;;;0.77;0.63;;;;;;;;;;7379550;19;20117;-60
2023/01/21 19:12:46;;;;;;;1.07;0.97;;;;;;;;;;7384124;19;20205;-62
2023/01/21 19:15:23;;;;;;;1.93;1.83;;;;;;;;;;7377506;19;20152;-59
2023/01/21 19:17:50;;;;;;;0.97;0.97;;;;;;;;;;7371597;19;20484;-61
2023/01/21 19:20:20;;;;;;;0.93;0.93;;;;;;;;;;7377159;19;20121;-60
2023/01/21 19:22:47;;;;;;;1.53;1.43;;;;;;;;;;7378091;19;20121;-60
2023/01/21 19:25:13;;;;;;;1.47;1.27;;;;;;;;;;7375601;19;20169;-60
2023/01/21 19:27:43;;;;;;;3.73;1.17;;;;;;;;;;7384794;19;20462;-60
2023/01/21 19:30:29;;;;;;;2.13;1.27;;;;;;;;;;7380198;19;20121;-60
2023/01/21 19:32:55;;;;;;;1.07;0.80;;;;;;;;;;7377664;19;20121;-60
2023/01/21 19:35:31;;;;;;;3.20;1.57;;;;;;;;;;7382210;19;20635;-60
2023/01/21 19:37:56;;;;;;;1.03;1.03;;;;;;;;;;7383549;19;20501;-59
2023/01/21 19:40:25;;;;;;;1.67;1.57;;;;;;;;;;7387171;19;20213;-61
2023/01/21 19:42:50;;;;;;;1.87;1.60;;;;;;;;;;7386065;19;20150;-60
2023/01/21 19:45:17;;;;;;;1.30;1.23;;;;;;;;;;7385070;19;20140;-61
2023/01/21 19:47:47;;;;;;;1.67;1.40;;;;;;;;;;7373080;19;20133;-60
2023/01/21 19:50:16;;;;;;;0.83;0.83;;;;;;;;;;7374210;19;20124;-60
2023/01/21 19:52:42;;;;;;;1.13;0.90;;;;;;;;;;7376042;19;20140;-60
2023/01/21 19:55:12;;;;;;;1.40;1.30;;;;;;;;;;7376973;19;20164;-60
2023/01/21 19:57:39;;;;;;;1.23;1.20;;;;;;;;;;7390099;19;20205;-61
2023/01/21 20:00:21;;;;;;;1.97;1.53;;;;;;;;;;7389816;19;20129;-60
2023/01/21 20:02:46;;;;;;;2.27;1.47;;;;;;;;;;7394003;19;20218;-60
2023/01/21 20:05:13;;;;;;;0.90;0.90;;;;;;;;;;7392425;19;20177;-60
2023/01/21 20:07:39;;;;;;;2.43;1.10;;;;;;;;;;7391417;19;20602;-60
2023/01/21 20:10:16;;;;;;;1.40;1.17;;;;;;;;;;7393652;19;20132;-60
2023/01/21 20:12:42;;;;;;;1.03;1.03;;;;;;;;;;7393670;19;20151;-60
2023/01/21 20:15:09;;;;;;;1.40;1.30;;;;;;;;;;7380625;19;20153;-59
2023/01/21 20:17:34;;;;;;;1.00;1.00;;;;;;;;;;7378077;19;20201;-60
2023/01/21 20:19:59;;;;;;;1.33;1.00;;;;;;;;;;7380511;19;23470;-60
2023/01/21 20:22:25;;;;;;;1.30;1.30;;;;;;;;;;7385272;19;20129;-62
2023/01/21 20:24:50;;;;;;;1.20;1.13;;;;;;;;;;7382847;19;20528;-60
2023/01/21 20:27:15;;;;;;;3.27;1.30;;;;;;;;;;7386581;19;20127;-60
2023/01/21 20:29:41;;;;;;;1.23;1.13;;;;;;;;;;7391211;19;20156;-60
2023/01/21 20:32:08;;;;;;;2.97;1.10;;;;;;;;;;7378218;19;20129;-59
2023/01/21 20:34:36;;;;;;;0.60;0.60;;;;;;;;;;7387489;19;20244;-61
2023/01/21 20:37:01;;;;;;;0.93;0.93;;;;;;;;;;7380213;19;20211;-61
2023/01/21 20:39:26;;;;;;;0.77;0.77;;;;;;;;;;7386503;19;20148;-61
2023/01/21 20:41:52;;;;;;;0.60;0.60;;;;;;;;;;7392370;19;20113;-61
2023/01/21 20:44:17;;;;;;;1.33;1.23;;;;;;;;;;7390824;19;20145;-60
2023/01/21 20:46:44;;;;;;;0.50;0.50;;;;;;;;;;7388519;19;20117;-60
2023/01/21 20:49:11;;;;;;;1.10;1.00;;;;;;;;;;7389120;19;20123;-60
2023/01/21 20:51:36;;;;;;;0.87;0.87;;;;;;;;;;7393099;19;20133;-61
2023/01/21 20:54:01;;;;;;;1.00;1.00;;;;;;;;;;7392564;19;20665;-60
2023/01/21 20:56:29;;;;;;;0.93;0.77;;;;;;;;;;7392192;19;20121;-60
2023/01/21 20:58:54;;;;;;;3.10;1.70;;;;;;;;;;7388978;19;20125;-61